createdAt,value
2022-10-18T00:01:10.346Z,13.62
2022-10-18T00:03:39.349Z,13.61
2022-10-18T00:06:09.095Z,13.71
2022-10-18T00:08:38.012Z,13.59
2022-10-18T00:11:07.101Z,13.61
2022-10-18T00:13:35.283Z,13.70
2022-10-18T00:16:11.045Z,13.88
2022-10-18T00:18:44.526Z,13.90
2022-10-18T00:21:16.359Z,13.92
2022-10-18T00:23:46.910Z,13.68
2022-10-18T00:26:20.108Z,13.75
2022-10-18T00:28:54.190Z,13.75
2022-10-18T00:31:26.818Z,13.82
2022-10-18T00:33:57.270Z,13.75
2022-10-18T00:36:27.032Z,13.72
2022-10-18T00:38:55.863Z,13.70
2022-10-18T00:41:33.448Z,13.73
2022-10-18T00:44:03.500Z,13.65
2022-10-18T00:46:35.245Z,13.84
2022-10-18T00:49:07.601Z,13.67
2022-10-18T00:51:43.634Z,13.66
2022-10-18T00:54:12.241Z,13.69
2022-10-18T00:56:40.628Z,13.68
2022-10-18T00:59:09.234Z,13.71
2022-10-18T01:01:38.910Z,13.70
2022-10-18T01:04:07.603Z,13.73
2022-10-18T01:06:43.219Z,13.68
2022-10-18T01:09:18.120Z,13.57
2022-10-18T01:12:08.703Z,13.56
2022-10-18T01:14:46.918Z,13.68
2022-10-18T01:17:20.700Z,13.71
2022-10-18T01:20:13.228Z,13.69
2022-10-18T01:22:46.003Z,13.60
2022-10-18T01:25:29.361Z,13.70
2022-10-18T01:28:05.672Z,13.53
2022-10-18T01:30:41.692Z,13.33
2022-10-18T01:33:22.488Z,13.38
2022-10-18T01:35:54.844Z,13.32
2022-10-18T01:38:25.757Z,13.40
2022-10-18T01:40:56.057Z,13.40
2022-10-18T01:43:25.469Z,13.44
2022-10-18T01:45:57.608Z,13.30
2022-10-18T01:48:25.896Z,13.40
2022-10-18T01:50:54.118Z,13.45
2022-10-18T01:53:24.169Z,13.43
2022-10-18T01:56:01.394Z,13.46
2022-10-18T01:58:37.011Z,13.48
2022-10-18T02:01:12.469Z,13.38
2022-10-18T02:03:46.249Z,13.42
2022-10-18T02:06:21.138Z,13.39
2022-10-18T02:08:56.041Z,13.47
2022-10-18T02:11:24.678Z,13.52
2022-10-18T02:13:56.489Z,13.51
2022-10-18T02:16:30.681Z,13.46
2022-10-18T02:19:02.325Z,13.50
2022-10-18T02:21:31.765Z,13.61
2022-10-18T02:24:03.053Z,13.59
2022-10-18T02:26:31.449Z,13.61
2022-10-18T02:28:59.640Z,13.59
2022-10-18T02:31:34.364Z,13.75
2022-10-18T02:34:09.855Z,13.84
2022-10-18T02:36:43.866Z,13.76
2022-10-18T02:39:15.014Z,13.61
2022-10-18T02:41:44.378Z,13.58
2022-10-18T02:44:12.530Z,13.65
2022-10-18T02:46:42.648Z,13.53
2022-10-18T02:49:10.770Z,13.57
2022-10-18T02:51:38.935Z,13.72
2022-10-18T02:54:08.351Z,13.73
2022-10-18T02:56:36.739Z,13.79
2022-10-18T02:59:07.306Z,13.62
2022-10-18T03:01:36.213Z,13.54
2022-10-18T03:04:06.175Z,13.44
2022-10-18T03:06:34.957Z,13.51
2022-10-18T03:09:03.254Z,13.63
2022-10-18T03:11:31.594Z,13.86
2022-10-18T03:13:59.774Z,13.70
2022-10-18T03:16:28.524Z,13.69
2022-10-18T03:18:56.675Z,13.63
2022-10-18T03:21:26.447Z,13.66
2022-10-18T03:23:54.805Z,13.52
2022-10-18T03:26:22.952Z,13.61
2022-10-18T03:28:51.164Z,13.56
2022-10-18T03:31:19.531Z,13.43
2022-10-18T03:33:47.689Z,13.63
2022-10-18T03:36:16.107Z,13.64
2022-10-18T03:38:45.575Z,13.58
2022-10-18T03:41:13.701Z,13.45
2022-10-18T03:43:41.892Z,13.47
2022-10-18T03:46:10.098Z,13.51
2022-10-18T03:48:38.237Z,13.54
2022-10-18T03:51:06.609Z,13.57
2022-10-18T03:53:34.842Z,13.56
2022-10-18T03:56:04.466Z,13.54
2022-10-18T04:01:05.735Z,13.54
2022-10-18T04:03:33.987Z,13.53
2022-10-18T04:06:03.589Z,13.50
2022-10-18T04:08:31.859Z,13.65
2022-10-18T04:10:59.985Z,13.80
2022-10-18T04:13:30.167Z,13.75
2022-10-18T04:15:58.280Z,13.74
2022-10-18T04:18:26.473Z,13.68
2022-10-18T04:20:54.640Z,13.62
2022-10-18T04:23:22.778Z,13.63
2022-10-18T04:25:51.275Z,13.50
2022-10-18T04:28:19.613Z,13.50
2022-10-18T04:30:52.033Z,13.57
2022-10-18T04:33:20.658Z,13.62
2022-10-18T04:35:51.990Z,13.75
2022-10-18T04:38:20.314Z,13.73
2022-10-18T04:40:48.495Z,13.72
2022-10-18T04:43:16.971Z,13.73
2022-10-18T04:45:45.955Z,13.74
2022-10-18T04:48:15.665Z,13.72
2022-10-18T04:50:43.969Z,13.76
2022-10-18T04:53:15.990Z,13.77
2022-10-18T04:55:45.179Z,13.87
2022-10-18T04:58:13.618Z,13.91
2022-10-18T05:00:42.236Z,13.89
2022-10-18T05:03:10.906Z,13.90
2022-10-18T05:05:57.156Z,13.87
2022-10-18T05:08:29.029Z,13.90
2022-10-18T05:10:57.309Z,13.87
2022-10-18T05:13:25.604Z,13.85
2022-10-18T05:15:53.754Z,13.87
2022-10-18T05:18:21.947Z,13.90
2022-10-18T05:20:51.412Z,13.87
2022-10-18T05:23:19.541Z,13.85
2022-10-18T05:25:47.973Z,13.67
2022-10-18T05:28:38.026Z,13.73
2022-10-18T05:31:06.975Z,13.83
2022-10-18T05:33:35.389Z,13.82
2022-10-18T05:36:05.340Z,13.92
2022-10-18T05:38:33.574Z,13.94
2022-10-18T05:41:05.407Z,13.97
2022-10-18T05:43:33.528Z,14.04
2022-10-18T05:46:01.871Z,13.94
2022-10-18T05:48:29.987Z,14.05
2022-10-18T05:50:59.383Z,14.06
2022-10-18T05:53:38.115Z,14.11
2022-10-18T05:56:07.659Z,14.09
2022-10-18T05:58:36.009Z,14.02
2022-10-18T06:01:06.380Z,13.92
2022-10-18T06:03:34.907Z,14.20
2022-10-18T06:06:05.225Z,14.10
2022-10-18T06:08:35.788Z,13.97
2022-10-18T06:11:07.822Z,13.87
2022-10-18T06:13:36.005Z,13.94
2022-10-18T06:16:04.161Z,13.93
2022-10-18T06:18:32.280Z,13.82
2022-10-18T06:21:00.727Z,13.82
2022-10-18T06:23:29.539Z,13.82
2022-10-18T06:26:01.227Z,13.88
2022-10-18T06:28:30.545Z,13.90
2022-10-18T06:30:59.142Z,13.98
2022-10-18T06:33:27.343Z,14.05
2022-10-18T06:35:57.044Z,14.14
2022-10-18T06:38:25.850Z,14.24
2022-10-18T06:40:54.007Z,14.12
2022-10-18T06:43:24.055Z,14.04
2022-10-18T06:45:52.897Z,13.95
2022-10-18T06:48:21.857Z,13.93
2022-10-18T06:50:54.837Z,14.07
2022-10-18T06:53:22.976Z,14.03
2022-10-18T06:55:51.277Z,13.95
2022-10-18T06:58:19.690Z,13.95
2022-10-18T07:00:49.240Z,13.98
2022-10-18T07:03:17.363Z,13.97
2022-10-18T07:05:45.482Z,13.82
2022-10-18T07:08:13.621Z,13.89
2022-10-18T07:10:41.835Z,13.99
2022-10-18T07:16:04.821Z,14.11
2022-10-18T07:18:34.429Z,14.31
2022-10-18T07:21:03.632Z,14.28
2022-10-18T07:23:33.545Z,14.36
2022-10-18T07:26:03.455Z,14.48
2022-10-18T07:28:32.023Z,14.57
2022-10-18T07:31:07.015Z,14.76
2022-10-18T07:33:35.843Z,14.78
2022-10-18T07:36:04.670Z,14.86
2022-10-18T07:38:33.093Z,14.89
2022-10-18T07:41:02.613Z,14.96
2022-10-18T07:43:31.069Z,14.98
2022-10-18T07:46:00.492Z,15.07
2022-10-18T07:48:30.630Z,15.18
2022-10-18T07:51:00.649Z,15.14
2022-10-18T07:53:29.084Z,15.11
2022-10-18T07:56:02.430Z,15.04
2022-10-18T07:58:33.446Z,14.93
2022-10-18T08:01:03.264Z,14.92
2022-10-18T08:03:33.139Z,14.94
2022-10-18T08:06:01.560Z,15.03
2022-10-18T08:08:30.601Z,15.15
2022-10-18T08:11:03.699Z,15.23
2022-10-18T08:13:31.947Z,15.34
2022-10-18T08:16:01.576Z,15.41
2022-10-18T08:18:30.514Z,15.39
2022-10-18T08:21:01.752Z,15.48
2022-10-18T08:23:30.233Z,15.59
2022-10-18T08:26:01.656Z,15.58
2022-10-18T08:28:30.049Z,15.66
2022-10-18T08:30:58.487Z,15.67
2022-10-18T08:33:26.614Z,15.78
2022-10-18T08:35:58.201Z,15.83
2022-10-18T08:38:31.115Z,15.79
2022-10-18T08:41:01.330Z,15.85
2022-10-18T08:46:12.421Z,15.79
2022-10-18T08:48:44.893Z,15.88
2022-10-18T08:51:23.271Z,15.78
2022-10-18T08:54:00.445Z,15.75
2022-10-18T08:56:28.653Z,15.79
2022-10-18T08:58:56.855Z,15.67
2022-10-18T09:01:32.662Z,15.66
2022-10-18T09:04:30.084Z,15.74
2022-10-18T09:07:16.524Z,15.62
2022-10-18T09:09:51.916Z,15.57
2022-10-18T09:12:43.696Z,15.62
2022-10-18T09:15:20.751Z,15.49
2022-10-18T09:18:03.520Z,15.40
2022-10-18T09:20:38.921Z,15.38
2022-10-18T09:23:19.422Z,15.47
2022-10-18T09:25:51.013Z,15.52
2022-10-18T09:28:33.203Z,15.45
2022-10-18T09:31:06.472Z,15.48
2022-10-18T09:33:47.548Z,15.49
2022-10-18T09:36:19.693Z,15.43
2022-10-18T09:38:51.310Z,15.46
2022-10-18T09:41:25.700Z,15.32
2022-10-18T09:43:59.437Z,15.20
2022-10-18T09:46:31.871Z,15.23
2022-10-18T09:49:04.641Z,15.25
2022-10-18T09:51:37.237Z,15.18
2022-10-18T09:54:18.778Z,15.14
2022-10-18T09:56:51.924Z,15.18
2022-10-18T09:59:39.322Z,15.32
2022-10-18T10:02:08.271Z,15.27
2022-10-18T10:04:36.415Z,15.20
2022-10-18T10:07:09.189Z,15.23
2022-10-18T10:09:42.408Z,15.09
2022-10-18T10:12:27.065Z,15.15
2022-10-18T10:14:55.235Z,15.04
2022-10-18T10:17:26.047Z,15.06
2022-10-18T10:19:59.932Z,15.10
2022-10-18T10:22:34.279Z,15.16
2022-10-18T10:25:03.075Z,15.14
2022-10-18T10:27:35.444Z,15.00
2022-10-18T10:30:07.351Z,15.05
2022-10-18T10:32:47.649Z,14.94
2022-10-18T10:35:52.630Z,15.03
2022-10-18T10:38:27.129Z,14.89
2022-10-18T10:40:56.276Z,14.92
2022-10-18T10:43:44.795Z,14.90
2022-10-18T10:46:15.345Z,14.87
2022-10-18T10:48:50.114Z,14.80
2022-10-18T10:51:29.292Z,14.76
2022-10-18T10:54:00.981Z,14.72
2022-10-18T10:56:31.461Z,14.74
2022-10-18T10:59:08.753Z,14.71
2022-10-18T11:01:37.387Z,14.69
2022-10-18T11:04:26.668Z,14.63
2022-10-18T11:07:01.797Z,14.74
2022-10-18T11:09:42.799Z,14.91
2022-10-18T11:12:22.995Z,14.85
2022-10-18T11:14:58.998Z,14.82
2022-10-18T11:17:33.599Z,14.82
2022-10-18T11:20:15.516Z,14.83
2022-10-18T11:22:48.073Z,14.75
2022-10-18T11:25:17.990Z,14.76
2022-10-18T11:27:54.216Z,14.67
2022-10-18T11:30:40.149Z,14.64
2022-10-18T11:33:29.505Z,14.83
2022-10-18T11:36:11.421Z,14.66
2022-10-18T11:38:47.665Z,14.77
2022-10-18T11:41:31.248Z,14.66
2022-10-18T11:44:03.396Z,14.66
2022-10-18T11:46:46.190Z,14.65
2022-10-18T11:49:30.811Z,14.62
2022-10-18T11:52:09.490Z,14.57
2022-10-18T11:54:53.022Z,14.81
2022-10-18T11:57:36.956Z,14.76
2022-10-18T12:00:17.870Z,14.77
2022-10-18T12:03:20.841Z,14.83
2022-10-18T12:05:52.008Z,14.84
2022-10-18T12:08:24.439Z,14.86
2022-10-18T12:11:05.414Z,14.87
2022-10-18T12:13:38.261Z,14.88
2022-10-18T12:16:09.049Z,14.82
2022-10-18T12:18:54.859Z,14.86
2022-10-18T12:21:26.041Z,14.77
2022-10-18T12:23:59.387Z,14.69
2022-10-18T12:26:29.359Z,14.72
2022-10-18T12:29:21.475Z,14.76
2022-10-18T12:31:54.102Z,14.86
2022-10-18T12:34:36.240Z,14.88
2022-10-18T12:37:24.739Z,14.96
2022-10-18T12:40:09.860Z,15.08
2022-10-18T12:42:43.782Z,15.09
2022-10-18T12:45:26.082Z,15.11
2022-10-18T12:47:55.096Z,15.03
2022-10-18T12:50:32.603Z,15.13
2022-10-18T12:53:17.936Z,15.09
2022-10-18T12:55:48.192Z,15.19
2022-10-18T12:58:28.679Z,15.05
2022-10-18T13:01:01.160Z,15.02
2022-10-18T13:03:39.317Z,14.96
2022-10-18T13:06:08.988Z,15.05
2022-10-18T13:08:41.952Z,15.13
2022-10-18T13:11:35.969Z,15.25
2022-10-18T13:14:38.752Z,15.27
2022-10-18T13:17:24.697Z,15.25
2022-10-18T13:20:24.698Z,15.11
2022-10-18T13:23:04.114Z,15.18
2022-10-18T13:25:42.030Z,15.22
2022-10-18T13:28:23.592Z,15.27
2022-10-18T13:30:57.736Z,15.25
2022-10-18T13:33:36.554Z,15.31
2022-10-18T13:36:07.089Z,15.35
2022-10-18T13:38:50.172Z,15.27
2022-10-18T13:41:20.856Z,15.26
2022-10-18T13:44:09.847Z,15.19
2022-10-18T13:47:20.545Z,15.12
2022-10-18T13:49:59.697Z,15.15
2022-10-18T13:52:40.496Z,15.23
2022-10-18T13:55:32.945Z,15.28
2022-10-18T13:58:12.173Z,15.28
2022-10-18T14:00:52.548Z,15.36
2022-10-18T14:06:27.808Z,15.30
2022-10-18T14:09:09.419Z,15.23
2022-10-18T14:11:51.877Z,15.24
2022-10-18T14:14:29.932Z,15.23
2022-10-18T14:17:04.721Z,15.32
2022-10-18T14:19:38.263Z,15.31
2022-10-18T14:22:14.797Z,15.47
2022-10-18T14:24:46.509Z,15.51
2022-10-18T14:27:19.986Z,15.68
2022-10-18T14:29:49.835Z,15.81
2022-10-18T14:32:29.292Z,15.85
2022-10-18T14:35:27.168Z,15.92
2022-10-18T14:37:48.790Z,15.85
2022-10-18T14:40:33.240Z,15.76
2022-10-18T14:43:12.172Z,15.74
2022-10-18T14:45:40.886Z,15.71
2022-10-18T14:48:15.952Z,15.77
2022-10-18T14:50:47.114Z,15.79
2022-10-18T14:53:18.677Z,15.72
2022-10-18T14:55:55.960Z,15.60
2022-10-18T14:58:25.747Z,15.57
2022-10-18T15:00:54.944Z,15.48
2022-10-18T15:03:24.786Z,15.33
2022-10-18T15:05:55.171Z,15.18
2022-10-18T15:08:29.126Z,15.14
2022-10-18T15:10:59.528Z,15.05
2022-10-18T15:13:31.138Z,14.95
2022-10-18T15:16:00.212Z,14.88
2022-10-18T15:21:22.205Z,14.81
2022-10-18T15:23:51.234Z,14.74
2022-10-18T15:26:27.554Z,14.71
2022-10-18T15:29:01.679Z,14.63
2022-10-18T15:31:36.374Z,14.63
2022-10-18T15:34:10.549Z,14.44
2022-10-18T15:36:39.293Z,14.38
2022-10-18T15:39:09.804Z,14.29
2022-10-18T15:41:40.856Z,14.22
2022-10-18T15:44:21.406Z,14.12
2022-10-18T15:46:52.885Z,14.11
2022-10-18T15:49:50.885Z,13.97
2022-10-18T15:52:38.128Z,14.08
2022-10-18T15:55:44.617Z,13.92
2022-10-18T15:58:16.587Z,13.84
2022-10-18T16:00:47.337Z,13.77
2022-10-18T16:03:17.054Z,13.65
2022-10-18T16:05:45.405Z,13.53
2022-10-18T16:08:21.652Z,13.30
2022-10-18T16:10:49.976Z,13.31
2022-10-18T16:13:18.228Z,13.36
2022-10-18T16:15:48.091Z,13.27
2022-10-18T16:18:18.727Z,13.24
2022-10-18T16:20:48.108Z,13.29
2022-10-18T16:23:19.269Z,13.29
2022-10-18T16:25:48.088Z,12.95
2022-10-18T16:28:19.259Z,12.84
2022-10-18T16:30:55.078Z,12.95
2022-10-18T16:33:24.190Z,12.96
2022-10-18T16:35:53.133Z,12.91
2022-10-18T16:38:34.843Z,12.69
2022-10-18T16:41:05.209Z,12.62
2022-10-18T16:43:34.654Z,12.64
2022-10-18T16:46:05.913Z,12.53
2022-10-18T16:48:34.596Z,12.41
2022-10-18T16:51:03.046Z,12.25
2022-10-18T16:53:31.920Z,12.35
2022-10-18T16:56:01.762Z,12.23
2022-10-18T16:58:31.378Z,12.25
2022-10-18T17:01:01.897Z,12.17
2022-10-18T17:03:33.681Z,12.16
2022-10-18T17:06:01.853Z,12.13
2022-10-18T17:08:30.405Z,12.22
2022-10-18T17:11:01.622Z,12.20
2022-10-18T17:13:29.766Z,12.10
2022-10-18T17:15:59.282Z,12.07
2022-10-18T17:18:27.588Z,12.13
2022-10-18T17:20:59.290Z,12.18
2022-10-18T17:23:27.585Z,12.17
2022-10-18T17:26:06.769Z,12.17
2022-10-18T17:28:43.634Z,12.15
2022-10-18T17:31:11.948Z,12.10
2022-10-18T17:33:40.385Z,12.04
2022-10-18T17:36:10.217Z,12.04
2022-10-18T17:38:38.450Z,11.87
2022-10-18T17:41:08.440Z,11.79
2022-10-18T17:43:37.682Z,11.72
2022-10-18T17:46:06.238Z,11.61
2022-10-18T17:48:34.767Z,11.49
2022-10-18T17:51:07.636Z,11.55
2022-10-18T17:53:37.331Z,11.48
2022-10-18T17:56:07.347Z,11.34
2022-10-18T17:58:35.836Z,11.25
2022-10-18T18:01:11.892Z,11.24
2022-10-18T18:03:40.111Z,11.22
2022-10-18T18:06:19.648Z,11.27
2022-10-18T18:08:50.451Z,11.13
2022-10-18T18:11:19.277Z,11.22
2022-10-18T18:13:47.460Z,11.15
2022-10-18T18:16:17.697Z,11.07
2022-10-18T18:18:46.516Z,11.03
2022-10-18T18:21:15.083Z,10.88
2022-10-18T18:23:43.303Z,10.90
2022-10-18T18:26:13.309Z,10.82
2022-10-18T18:28:42.229Z,10.83
2022-10-18T18:31:12.422Z,10.66
2022-10-18T18:33:40.617Z,10.87
2022-10-18T18:36:09.240Z,10.81
2022-10-18T18:38:39.688Z,10.82
2022-10-18T18:41:10.541Z,10.80
2022-10-18T18:43:41.962Z,10.74
2022-10-18T18:46:12.600Z,10.67
2022-10-18T18:48:41.806Z,10.66
2022-10-18T18:51:12.492Z,10.62
2022-10-18T18:53:41.707Z,10.53
2022-10-18T18:56:13.951Z,10.51
2022-10-18T18:58:44.908Z,10.46
2022-10-18T19:01:17.197Z,10.43
2022-10-18T19:03:46.389Z,10.36
2022-10-18T19:06:17.735Z,10.32
2022-10-18T19:08:47.395Z,10.36
2022-10-18T19:11:18.058Z,10.18
2022-10-18T19:13:48.773Z,10.29
2022-10-18T19:16:26.586Z,10.26
2022-10-18T19:18:57.280Z,10.13
2022-10-18T19:21:26.976Z,10.19
2022-10-18T19:23:56.143Z,10.18
2022-10-18T19:26:28.484Z,10.05
2022-10-18T19:29:01.600Z,10.01
2022-10-18T19:31:30.053Z,9.99
2022-10-18T19:33:59.733Z,10.06
2022-10-18T19:36:29.522Z,10.01
2022-10-18T19:38:57.771Z,9.96
2022-10-18T19:43:54.327Z,9.94
2022-10-18T19:46:24.212Z,9.83
2022-10-18T19:48:54.083Z,9.72
2022-10-18T19:51:26.863Z,9.79
2022-10-18T19:53:57.645Z,9.80
2022-10-18T19:56:27.943Z,9.83
2022-10-18T19:58:57.428Z,9.72
2022-10-18T20:01:28.937Z,9.72
2022-10-18T20:03:57.413Z,9.68
2022-10-18T20:06:25.553Z,9.76
2022-10-18T20:08:54.117Z,9.54
2022-10-18T20:11:24.305Z,9.58
2022-10-18T20:13:52.599Z,9.65
2022-10-18T20:16:27.957Z,9.52
2022-10-18T20:18:59.756Z,9.57
2022-10-18T20:21:29.761Z,9.46
2022-10-18T20:23:58.627Z,9.54
2022-10-18T20:26:26.906Z,9.43
2022-10-18T20:28:58.103Z,9.58
2022-10-18T20:31:28.380Z,9.54
2022-10-18T20:33:59.775Z,9.54
2022-10-18T20:36:29.369Z,9.56
2022-10-18T20:38:57.790Z,9.56
2022-10-18T20:41:27.924Z,9.61
2022-10-18T20:43:57.512Z,9.54
2022-10-18T20:46:26.793Z,9.55
2022-10-18T20:48:55.376Z,9.53
2022-10-18T20:51:25.083Z,9.56
2022-10-18T20:53:54.276Z,9.52
2022-10-18T20:56:25.209Z,9.41
2022-10-18T20:58:55.643Z,9.43
2022-10-18T21:01:25.439Z,9.24
2022-10-18T21:03:55.400Z,9.21
2022-10-18T21:06:27.804Z,9.25
2022-10-18T21:08:58.119Z,9.27
2022-10-18T21:11:27.824Z,9.24
2022-10-18T21:13:58.940Z,9.17
2022-10-18T21:16:27.360Z,9.21
2022-10-18T21:18:55.864Z,9.14
2022-10-18T21:21:25.662Z,9.22
2022-10-18T21:23:54.621Z,9.12
2022-10-18T21:26:24.535Z,9.09
2022-10-18T21:28:54.210Z,9.08
2022-10-18T21:31:24.365Z,9.08
2022-10-18T21:33:54.813Z,9.00
2022-10-18T21:36:24.168Z,9.01
2022-10-18T21:38:53.997Z,9.15
2022-10-18T21:41:23.425Z,9.01
2022-10-18T21:43:54.128Z,8.92
2022-10-18T21:46:24.192Z,9.05
2022-10-18T21:48:53.807Z,9.17
2022-10-18T21:51:24.089Z,9.03
2022-10-18T21:53:55.083Z,9.09
2022-10-18T21:56:25.009Z,8.96
2022-10-18T21:58:53.452Z,9.02
2022-10-18T22:01:24.716Z,9.16
2022-10-18T22:03:55.260Z,9.09
2022-10-18T22:06:24.597Z,9.04
2022-10-18T22:08:56.389Z,9.14
2022-10-18T22:11:27.048Z,9.01
2022-10-18T22:13:55.235Z,9.14
2022-10-18T22:16:23.614Z,9.12
2022-10-18T22:18:52.540Z,8.97
2022-10-18T22:21:21.661Z,8.95
2022-10-18T22:23:51.573Z,9.04
2022-10-18T22:26:22.983Z,9.09
2022-10-18T22:28:55.572Z,8.96
2022-10-18T22:31:26.131Z,8.85
2022-10-18T22:33:55.500Z,8.80
2022-10-18T22:36:24.738Z,8.60
2022-10-18T22:38:53.377Z,8.71
2022-10-18T22:41:23.178Z,8.58
2022-10-18T22:43:52.040Z,8.64
2022-10-18T22:46:21.030Z,8.71
2022-10-18T22:48:49.503Z,8.77
2022-10-18T22:51:17.980Z,8.81
2022-10-18T22:53:46.896Z,8.74
2022-10-18T22:56:17.948Z,8.91
2022-10-18T22:58:48.030Z,8.81
2022-10-18T23:01:17.899Z,8.92
2022-10-18T23:03:46.424Z,9.02
2022-10-18T23:06:21.303Z,9.10
2022-10-18T23:08:50.021Z,8.97
2022-10-18T23:11:18.869Z,8.94
2022-10-18T23:13:48.495Z,9.13
2022-10-18T23:16:17.917Z,9.14
2022-10-18T23:18:50.656Z,9.12
2022-10-18T23:21:19.473Z,9.14
2022-10-18T23:23:47.971Z,9.03
2022-10-18T23:26:17.862Z,9.21
2022-10-18T23:28:48.985Z,9.21
2022-10-18T23:31:19.323Z,9.29
2022-10-18T23:33:49.397Z,9.30
2022-10-18T23:36:18.181Z,9.47
2022-10-18T23:38:46.777Z,9.53
2022-10-18T23:41:16.392Z,9.42
2022-10-18T23:43:45.691Z,9.25
2022-10-18T23:46:16.408Z,9.51
2022-10-18T23:48:45.259Z,9.51
2022-10-18T23:51:13.836Z,9.33
2022-10-18T23:53:42.431Z,9.39
2022-10-18T23:56:12.293Z,9.57
2022-10-18T23:58:40.502Z,9.60
